createdAt,value
2023-01-22T00:01:09.730Z,-1.20
2023-01-22T00:03:37.331Z,-1.30
2023-01-22T00:06:04.857Z,-0.60
2023-01-22T00:08:32.045Z,-1.30
2023-01-22T00:10:59.265Z,-1.30
2023-01-22T00:13:27.298Z,-1.10
2023-01-22T00:15:56.470Z,-0.90
2023-01-22T00:18:23.263Z,-1.00
2023-01-22T00:20:51.769Z,-1.20
2023-01-22T00:23:19.097Z,-1.20
2023-01-22T00:25:47.593Z,-1.50
2023-01-22T00:28:15.769Z,-1.30
2023-01-22T00:30:43.004Z,-1.30
2023-01-22T00:33:09.733Z,-1.30
2023-01-22T00:35:39.169Z,-1.20
2023-01-22T00:38:06.630Z,-1.40
2023-01-22T00:40:33.345Z,-1.50
2023-01-22T00:43:00.061Z,-1.50
2023-01-22T00:45:26.842Z,-1.20
2023-01-22T00:47:53.628Z,-1.10
2023-01-22T00:50:20.500Z,-0.70
2023-01-22T00:52:47.462Z,-0.30
2023-01-22T00:55:14.251Z,-0.50
2023-01-22T00:57:41.035Z,-0.40
2023-01-22T01:00:08.812Z,-0.90
2023-01-22T01:02:55.658Z,-1.20
2023-01-22T01:05:22.452Z,-1.30
2023-01-22T01:07:49.209Z,-1.40
2023-01-22T01:10:16.804Z,-1.70
2023-01-22T01:12:43.696Z,-0.60
2023-01-22T01:15:11.172Z,-1.20
2023-01-22T01:17:37.888Z,-1.70
2023-01-22T01:20:04.942Z,-1.80
2023-01-22T01:22:31.710Z,-1.80
2023-01-22T01:24:58.541Z,-1.80
2023-01-22T01:27:25.302Z,-1.90
2023-01-22T01:29:52.158Z,-1.80
2023-01-22T01:32:18.908Z,-1.10
2023-01-22T01:34:47.891Z,-1.70
2023-01-22T01:37:14.617Z,-1.70
2023-01-22T01:39:41.358Z,-1.90
2023-01-22T01:42:08.760Z,-2.20
2023-01-22T01:44:37.397Z,-2.10
2023-01-22T01:47:07.770Z,-2.10
2023-01-22T01:49:46.318Z,-1.80
2023-01-22T01:52:14.498Z,-1.70
2023-01-22T01:54:45.107Z,-1.60
2023-01-22T01:57:16.652Z,-1.40
2023-01-22T01:59:45.706Z,-1.30
2023-01-22T02:02:12.508Z,-1.20
2023-01-22T02:04:39.353Z,-1.30
2023-01-22T02:07:06.719Z,-1.20
2023-01-22T02:09:33.643Z,-1.10
2023-01-22T02:12:00.655Z,-0.20
2023-01-22T02:14:32.141Z,-0.30
2023-01-22T02:17:07.242Z,-1.10
2023-01-22T02:19:33.970Z,-1.10
2023-01-22T02:22:00.920Z,-1.00
2023-01-22T02:24:30.477Z,-0.70
2023-01-22T02:26:57.181Z,0.10
2023-01-22T02:29:26.611Z,-0.70
2023-01-22T02:31:53.414Z,-0.80
2023-01-22T02:34:24.576Z,-1.10
2023-01-22T02:36:52.236Z,-1.20
2023-01-22T02:39:19.096Z,-1.20
2023-01-22T02:41:46.351Z,-1.30
2023-01-22T02:44:13.184Z,-1.10
2023-01-22T02:46:41.509Z,-1.30
2023-01-22T02:49:08.331Z,-1.30
2023-01-22T02:51:35.096Z,-1.50
2023-01-22T02:54:02.035Z,-1.70
2023-01-22T02:56:28.840Z,-1.80
2023-01-22T02:58:55.597Z,-1.00
2023-01-22T03:01:24.829Z,-1.70
2023-01-22T03:04:01.678Z,-0.80
2023-01-22T03:06:30.049Z,-1.60
2023-01-22T03:09:00.897Z,-1.70
2023-01-22T03:11:32.782Z,-0.40
2023-01-22T03:14:17.988Z,-1.70
2023-01-22T03:17:04.319Z,-1.80
2023-01-22T03:19:49.677Z,-1.50
2023-01-22T03:22:17.311Z,-1.40
2023-01-22T03:24:50.673Z,-1.10
2023-01-22T03:27:19.092Z,-1.70
2023-01-22T03:29:46.309Z,-1.80
2023-01-22T03:32:14.050Z,-1.90
2023-01-22T03:34:41.542Z,-2.00
2023-01-22T03:37:09.242Z,-2.20
2023-01-22T03:39:36.084Z,-2.10
2023-01-22T03:42:02.857Z,-1.90
2023-01-22T03:44:29.707Z,-1.90
2023-01-22T03:46:56.676Z,-2.00
2023-01-22T03:49:23.583Z,-1.90
2023-01-22T03:51:50.353Z,-1.90
2023-01-22T03:54:17.722Z,-1.90
2023-01-22T03:56:45.625Z,-1.00
2023-01-22T03:59:12.449Z,-1.80
2023-01-22T04:01:39.511Z,-1.60
2023-01-22T04:04:06.296Z,-1.80
2023-01-22T04:06:33.536Z,-1.50
2023-01-22T04:09:00.281Z,-1.90
2023-01-22T04:11:27.069Z,-1.40
2023-01-22T04:13:55.557Z,-2.20
2023-01-22T04:16:23.815Z,-1.60
2023-01-22T04:18:50.686Z,-1.80
2023-01-22T04:21:17.528Z,-1.70
2023-01-22T04:23:44.641Z,-2.10
2023-01-22T04:26:11.803Z,-2.10
2023-01-22T04:28:38.641Z,-2.30
2023-01-22T04:31:08.886Z,-2.30
2023-01-22T04:33:36.158Z,-2.50
2023-01-22T04:36:02.944Z,-2.50
2023-01-22T04:38:31.612Z,-2.50
2023-01-22T04:40:58.348Z,-2.50
2023-01-22T04:43:25.161Z,-2.60
2023-01-22T04:45:51.981Z,-2.70
2023-01-22T04:48:19.077Z,-2.90
2023-01-22T04:50:46.586Z,-2.80
2023-01-22T04:56:54.633Z,-2.60
2023-01-22T04:59:21.389Z,-1.60
2023-01-22T05:01:50.599Z,-2.60
2023-01-22T05:04:17.693Z,-2.90
2023-01-22T05:07:03.248Z,-2.50
2023-01-22T05:13:11.679Z,-2.40
2023-01-22T05:15:38.458Z,-2.20
2023-01-22T05:18:05.531Z,-2.30
2023-01-22T05:20:51.291Z,-2.20
2023-01-22T05:23:18.058Z,-2.20
2023-01-22T05:25:49.210Z,-1.90
2023-01-22T05:28:15.926Z,-1.80
2023-01-22T05:30:42.769Z,-1.50
2023-01-22T05:33:11.466Z,-1.50
2023-01-22T05:35:38.337Z,-1.30
2023-01-22T05:38:05.154Z,-1.50
2023-01-22T05:40:31.997Z,-1.20
2023-01-22T05:42:58.701Z,-1.10
2023-01-22T05:45:25.449Z,-1.30
2023-01-22T05:47:53.673Z,-1.30
2023-01-22T05:50:22.661Z,-1.40
2023-01-22T05:52:55.028Z,-2.00
2023-01-22T05:55:22.258Z,-2.00
2023-01-22T05:57:49.483Z,-2.00
2023-01-22T06:00:19.305Z,-2.70
2023-01-22T06:02:46.603Z,-2.90
2023-01-22T06:05:14.215Z,-2.70
2023-01-22T06:07:41.072Z,-2.70
2023-01-22T06:10:08.548Z,-2.70
2023-01-22T06:12:36.394Z,-2.60
2023-01-22T06:15:03.349Z,-2.50
2023-01-22T06:17:30.126Z,-2.80
2023-01-22T06:20:01.593Z,-3.30
2023-01-22T06:22:28.423Z,-3.50
2023-01-22T06:24:56.560Z,-3.40
2023-01-22T06:27:23.386Z,-2.80
2023-01-22T06:29:50.183Z,-2.50
2023-01-22T06:32:16.929Z,-2.50
2023-01-22T06:34:44.079Z,-2.50
2023-01-22T06:37:10.817Z,-2.50
2023-01-22T06:39:37.520Z,-2.80
2023-01-22T06:42:05.466Z,-2.70
2023-01-22T06:44:32.250Z,-2.60
2023-01-22T06:46:59.021Z,-2.50
2023-01-22T06:49:27.366Z,-2.60
2023-01-22T06:51:54.079Z,-2.90
2023-01-22T06:54:20.865Z,-2.90
2023-01-22T06:56:47.616Z,-3.00
2023-01-22T06:59:14.338Z,-3.10
2023-01-22T07:01:42.129Z,-3.20
2023-01-22T07:04:09.009Z,-3.30
2023-01-22T07:06:35.808Z,-3.60
2023-01-22T07:09:02.571Z,-3.60
2023-01-22T07:11:29.348Z,-3.70
2023-01-22T07:13:56.673Z,-3.60
2023-01-22T07:16:23.501Z,-3.60
2023-01-22T07:18:50.365Z,-3.70
2023-01-22T07:21:17.208Z,-3.80
2023-01-22T07:23:43.951Z,-3.60
2023-01-22T07:26:10.662Z,-3.50
2023-01-22T07:28:37.444Z,-3.30
2023-01-22T07:31:05.215Z,-3.20
2023-01-22T07:33:32.089Z,-3.30
2023-01-22T07:35:59.906Z,-3.30
2023-01-22T07:38:34.502Z,-3.30
2023-01-22T07:41:04.365Z,-3.40
2023-01-22T07:43:32.924Z,-3.40
2023-01-22T07:46:04.089Z,-3.30
2023-01-22T07:48:30.899Z,-2.70
2023-01-22T07:51:03.235Z,-2.60
2023-01-22T07:53:30.339Z,-3.20
2023-01-22T07:55:57.159Z,-3.20
2023-01-22T07:58:24.103Z,-3.10
2023-01-22T08:00:53.338Z,-3.70
2023-01-22T08:03:20.202Z,-3.70
2023-01-22T08:05:46.992Z,-3.30
2023-01-22T08:08:20.519Z,-3.30
2023-01-22T08:10:47.747Z,-3.20
2023-01-22T08:13:14.998Z,-3.00
2023-01-22T08:15:46.460Z,-2.80
2023-01-22T08:18:13.707Z,-2.60
2023-01-22T08:20:40.485Z,-3.00
2023-01-22T08:23:09.589Z,-3.40
2023-01-22T08:25:36.359Z,-3.30
2023-01-22T08:28:05.104Z,-3.10
2023-01-22T08:30:36.511Z,-3.40
2023-01-22T08:33:10.724Z,-3.50
2023-01-22T08:35:40.305Z,-3.50
2023-01-22T08:38:07.130Z,-3.50
2023-01-22T08:40:33.990Z,-3.50
2023-01-22T08:43:00.780Z,-1.60
2023-01-22T08:45:27.562Z,-2.80
2023-01-22T08:47:59.839Z,-2.70
2023-01-22T08:50:28.844Z,-2.50
2023-01-22T08:52:57.913Z,-2.40
2023-01-22T08:55:25.209Z,-2.50
2023-01-22T08:57:58.598Z,-2.80
2023-01-22T09:00:25.930Z,-2.70
2023-01-22T09:02:57.790Z,-2.90
2023-01-22T09:05:24.594Z,-2.90
2023-01-22T09:07:51.708Z,-2.80
2023-01-22T09:10:21.392Z,-2.60
2023-01-22T09:12:48.654Z,-2.40
2023-01-22T09:15:16.953Z,-2.30
2023-01-22T09:17:43.676Z,-2.10
2023-01-22T09:20:12.391Z,-2.00
2023-01-22T09:22:39.215Z,-2.10
2023-01-22T09:25:06.535Z,-1.90
2023-01-22T09:27:34.799Z,-1.60
2023-01-22T09:30:01.698Z,-1.30
2023-01-22T09:32:28.543Z,-1.30
2023-01-22T09:34:55.399Z,-1.30
2023-01-22T09:37:22.563Z,-1.50
2023-01-22T09:39:50.480Z,-1.40
2023-01-22T09:42:40.303Z,-1.30
2023-01-22T09:45:12.018Z,-1.00
2023-01-22T09:47:50.466Z,-1.20
2023-01-22T09:50:22.157Z,-0.90
2023-01-22T09:56:38.951Z,-0.40
2023-01-22T09:59:12.826Z,-0.50
2023-01-22T10:01:39.923Z,-0.30
2023-01-22T10:04:27.152Z,-0.50
2023-01-22T10:06:57.233Z,-0.60
2023-01-22T10:09:24.742Z,-0.40
2023-01-22T10:11:54.680Z,-0.30
2023-01-22T10:14:24.127Z,0.10
2023-01-22T10:16:51.118Z,0.40
2023-01-22T10:19:27.209Z,0.90
2023-01-22T10:22:02.602Z,1.20
2023-01-22T10:24:30.680Z,1.10
2023-01-22T10:26:59.353Z,1.10
2023-01-22T10:29:31.149Z,1.40
2023-01-22T10:32:25.195Z,2.20
2023-01-22T10:35:01.109Z,1.50
2023-01-22T10:37:31.556Z,1.70
2023-01-22T10:40:00.097Z,2.10
2023-01-22T10:42:29.215Z,2.20
2023-01-22T10:45:16.452Z,2.30
2023-01-22T10:47:43.246Z,2.10
2023-01-22T10:50:16.375Z,1.70
2023-01-22T10:52:53.731Z,1.20
2023-01-22T10:55:30.487Z,1.00
2023-01-22T10:58:16.963Z,1.00
2023-01-22T11:00:52.301Z,1.20
2023-01-22T11:03:32.144Z,1.50
2023-01-22T11:06:11.453Z,1.60
2023-01-22T11:08:51.185Z,2.00
2023-01-22T11:11:23.585Z,2.70
2023-01-22T11:14:04.949Z,2.70
2023-01-22T11:16:36.174Z,2.80
2023-01-22T11:19:15.792Z,2.80
2023-01-22T11:21:51.731Z,2.80
2023-01-22T11:24:42.197Z,2.50
2023-01-22T11:27:25.623Z,2.00
2023-01-22T11:30:15.796Z,1.90
2023-01-22T11:33:17.162Z,1.60
2023-01-22T11:35:49.580Z,1.90
2023-01-22T11:38:36.886Z,2.00
2023-01-22T11:41:09.595Z,1.50
2023-01-22T11:43:58.542Z,1.00
2023-01-22T11:47:02.813Z,0.90
2023-01-22T11:49:29.544Z,1.10
2023-01-22T11:52:16.023Z,1.10
2023-01-22T11:55:04.012Z,1.10
2023-01-22T11:57:37.371Z,1.30
2023-01-22T12:00:22.709Z,1.40
2023-01-22T12:03:33.399Z,1.30
2023-01-22T12:06:20.723Z,1.50
2023-01-22T12:09:02.090Z,1.50
2023-01-22T12:12:02.894Z,1.90
2023-01-22T12:15:07.076Z,1.90
2023-01-22T12:18:11.698Z,2.00
2023-01-22T12:21:11.444Z,2.80
2023-01-22T12:23:49.708Z,3.30
2023-01-22T12:26:29.647Z,3.10
2023-01-22T12:29:18.494Z,3.30
2023-01-22T12:31:56.621Z,4.20
2023-01-22T12:34:37.693Z,4.70
2023-01-22T12:37:06.148Z,5.20
2023-01-22T12:39:46.240Z,6.20
2023-01-22T12:42:33.343Z,7.10
2023-01-22T12:45:21.613Z,7.30
2023-01-22T12:48:12.128Z,6.90
2023-01-22T12:50:52.670Z,6.80
2023-01-22T12:53:34.649Z,5.80
2023-01-22T12:56:08.593Z,4.70
2023-01-22T12:58:41.342Z,4.30
2023-01-22T13:01:14.156Z,4.60
2023-01-22T13:03:42.181Z,4.90
2023-01-22T13:06:39.484Z,4.70
2023-01-22T13:09:23.538Z,5.00
2023-01-22T13:11:50.327Z,4.90
2023-01-22T13:14:19.439Z,5.40
2023-01-22T13:17:03.095Z,5.80
2023-01-22T13:19:38.852Z,6.30
2023-01-22T13:22:08.075Z,6.60
2023-01-22T13:24:34.955Z,6.70
2023-01-22T13:27:03.365Z,6.60
2023-01-22T13:29:37.583Z,7.10
2023-01-22T13:32:19.563Z,6.80
2023-01-22T13:34:47.275Z,6.50
2023-01-22T13:37:25.548Z,5.70
2023-01-22T13:39:52.628Z,5.10
2023-01-22T13:42:19.637Z,4.50
2023-01-22T13:44:49.436Z,4.10
2023-01-22T13:47:34.178Z,4.30
2023-01-22T13:50:21.608Z,4.20
2023-01-22T13:52:50.390Z,4.30
2023-01-22T13:55:23.019Z,4.50
2023-01-22T13:57:52.854Z,4.40
2023-01-22T14:00:30.099Z,4.60
2023-01-22T14:02:58.416Z,4.40
2023-01-22T14:09:08.554Z,4.60
2023-01-22T14:12:40.818Z,4.70
2023-01-22T14:15:19.822Z,5.30
2023-01-22T14:17:49.795Z,5.40
2023-01-22T14:20:17.749Z,6.30
2023-01-22T14:22:44.727Z,6.60
2023-01-22T14:25:11.460Z,6.50
2023-01-22T14:27:52.083Z,6.70
2023-01-22T14:30:21.756Z,6.50
2023-01-22T14:32:51.171Z,6.20
2023-01-22T14:35:20.791Z,6.10
2023-01-22T14:37:47.972Z,6.60
2023-01-22T14:40:16.516Z,7.10
2023-01-22T14:42:43.757Z,7.00
2023-01-22T14:45:11.626Z,8.00
2023-01-22T14:47:38.416Z,9.10
2023-01-22T14:50:06.947Z,9.70
2023-01-22T14:52:34.021Z,9.80
2023-01-22T14:55:00.820Z,9.00
2023-01-22T14:57:27.546Z,8.20
2023-01-22T14:59:54.262Z,7.70
2023-01-22T15:02:21.296Z,7.10
2023-01-22T15:04:48.608Z,7.00
2023-01-22T15:07:15.463Z,6.90
2023-01-22T15:09:42.259Z,6.50
2023-01-22T15:12:10.464Z,6.10
2023-01-22T15:14:37.358Z,6.00
2023-01-22T15:17:04.059Z,6.10
2023-01-22T15:19:40.681Z,6.30
2023-01-22T15:22:08.322Z,6.40
2023-01-22T15:24:35.148Z,6.40
2023-01-22T15:27:01.871Z,5.90
2023-01-22T15:29:28.837Z,5.50
2023-01-22T15:31:55.760Z,5.00
2023-01-22T15:34:23.827Z,4.70
2023-01-22T15:36:51.123Z,4.70
2023-01-22T15:39:17.830Z,4.50
2023-01-22T15:41:44.717Z,4.00
2023-01-22T15:44:13.699Z,3.60
2023-01-22T15:46:42.198Z,3.40
2023-01-22T15:49:10.374Z,3.90
2023-01-22T15:51:37.730Z,3.40
2023-01-22T15:54:06.853Z,3.30
2023-01-22T15:56:36.080Z,3.30
2023-01-22T15:59:04.144Z,3.90
2023-01-22T16:01:31.465Z,3.20
2023-01-22T16:03:58.272Z,3.10
2023-01-22T16:06:27.813Z,2.90
2023-01-22T16:08:57.802Z,2.80
2023-01-22T16:11:28.992Z,2.90
2023-01-22T16:13:56.501Z,3.20
2023-01-22T16:16:33.386Z,3.40
2023-01-22T16:19:02.290Z,3.40
2023-01-22T16:21:29.533Z,3.70
2023-01-22T16:23:59.113Z,3.80
2023-01-22T16:26:29.069Z,3.40
2023-01-22T16:28:57.797Z,3.30
2023-01-22T16:31:29.080Z,3.30
2023-01-22T16:34:01.680Z,3.10
2023-01-22T16:36:29.778Z,3.10
2023-01-22T16:38:56.676Z,3.30
2023-01-22T16:41:28.778Z,3.60
2023-01-22T16:44:01.939Z,3.60
2023-01-22T16:46:30.683Z,3.70
2023-01-22T16:49:06.280Z,3.70
2023-01-22T16:51:39.664Z,3.70
2023-01-22T16:54:07.738Z,3.70
2023-01-22T16:56:35.284Z,3.90
2023-01-22T16:59:02.162Z,3.60
2023-01-22T17:01:30.221Z,3.60
2023-01-22T17:03:57.221Z,3.50
2023-01-22T17:06:45.961Z,3.60
2023-01-22T17:09:15.442Z,3.40
2023-01-22T17:11:45.412Z,3.40
2023-01-22T17:14:12.710Z,3.10
2023-01-22T17:16:40.438Z,3.40
2023-01-22T17:19:07.210Z,3.50
2023-01-22T17:21:34.042Z,3.20
2023-01-22T17:24:00.861Z,3.40
2023-01-22T17:26:27.701Z,3.10
2023-01-22T17:28:54.771Z,3.10
2023-01-22T17:31:24.768Z,3.00
2023-01-22T17:33:55.388Z,3.10
2023-01-22T17:36:24.300Z,2.90
2023-01-22T17:38:52.301Z,2.90
2023-01-22T17:41:21.957Z,3.10
2023-01-22T17:47:29.865Z,2.80
2023-01-22T17:49:56.633Z,2.50
2023-01-22T17:52:23.572Z,2.30
2023-01-22T17:54:53.054Z,2.10
2023-01-22T17:57:19.808Z,2.30
2023-01-22T17:59:46.628Z,2.00
2023-01-22T18:02:13.362Z,2.10
2023-01-22T18:04:40.130Z,1.80
2023-01-22T18:07:06.902Z,1.50
2023-01-22T18:09:33.605Z,1.40
2023-01-22T18:12:02.785Z,1.30
2023-01-22T18:14:33.916Z,1.20
2023-01-22T18:17:01.906Z,1.30
2023-01-22T18:19:29.997Z,1.30
2023-01-22T18:21:56.764Z,1.40
2023-01-22T18:24:24.308Z,1.60
2023-01-22T18:26:51.244Z,1.80
2023-01-22T18:29:18.085Z,1.90
2023-01-22T18:31:45.065Z,2.50
2023-01-22T18:34:15.131Z,2.30
2023-01-22T18:36:42.637Z,2.80
2023-01-22T18:39:14.975Z,2.20
2023-01-22T18:41:42.350Z,2.10
2023-01-22T18:44:10.210Z,2.10
2023-01-22T18:46:39.325Z,2.10
2023-01-22T18:49:11.485Z,2.10
2023-01-22T18:51:40.271Z,2.40
2023-01-22T18:54:07.296Z,2.30
2023-01-22T18:56:34.913Z,2.20
2023-01-22T18:59:01.729Z,2.20
2023-01-22T19:01:32.097Z,1.90
2023-01-22T19:04:01.461Z,1.90
2023-01-22T19:06:36.699Z,2.30
2023-01-22T19:09:10.062Z,2.30
2023-01-22T19:11:38.883Z,2.30
2023-01-22T19:14:07.248Z,2.10
2023-01-22T19:16:34.161Z,2.10
2023-01-22T19:19:03.946Z,2.20
2023-01-22T19:21:31.743Z,2.10
2023-01-22T19:24:01.005Z,2.10
2023-01-22T19:26:36.389Z,1.90
2023-01-22T19:29:06.751Z,1.80
2023-01-22T19:31:39.826Z,1.80
2023-01-22T19:34:11.282Z,2.00
2023-01-22T19:36:38.948Z,2.30
2023-01-22T19:39:11.482Z,1.70
2023-01-22T19:41:41.765Z,1.60
2023-01-22T19:44:10.019Z,1.50
2023-01-22T19:46:38.175Z,1.30
2023-01-22T19:49:05.904Z,1.10
2023-01-22T19:51:32.729Z,1.30
2023-01-22T19:54:00.650Z,1.10
2023-01-22T19:56:30.362Z,1.10
2023-01-22T19:59:10.751Z,1.10
2023-01-22T20:01:39.259Z,1.10
2023-01-22T20:04:11.962Z,1.20
2023-01-22T20:06:39.785Z,1.20
2023-01-22T20:09:06.569Z,1.00
2023-01-22T20:11:33.363Z,1.00
2023-01-22T20:14:00.198Z,1.40
2023-01-22T20:16:30.232Z,2.70
2023-01-22T20:18:57.840Z,1.80
2023-01-22T20:21:27.063Z,1.10
2023-01-22T20:23:54.573Z,1.20
2023-01-22T20:26:21.996Z,1.50
2023-01-22T20:28:49.456Z,1.40
2023-01-22T20:31:20.163Z,1.60
2023-01-22T20:33:47.368Z,1.50
2023-01-22T20:36:15.157Z,1.50
2023-01-22T20:38:44.678Z,1.70
2023-01-22T20:41:12.415Z,1.70
2023-01-22T20:43:41.990Z,1.60
2023-01-22T20:46:20.716Z,1.80
2023-01-22T20:48:48.196Z,1.50
2023-01-22T20:51:21.110Z,1.70
2023-01-22T20:53:49.337Z,2.00
2023-01-22T20:56:24.752Z,2.10
2023-01-22T20:58:59.311Z,1.90
2023-01-22T21:01:26.902Z,1.70
2023-01-22T21:03:55.709Z,2.20
2023-01-22T21:06:23.288Z,1.30
2023-01-22T21:08:52.664Z,1.40
2023-01-22T21:11:21.127Z,2.00
2023-01-22T21:13:52.211Z,1.30
2023-01-22T21:16:26.417Z,1.30
2023-01-22T21:18:55.903Z,1.00
2023-01-22T21:21:23.657Z,1.30
2023-01-22T21:23:53.301Z,1.60
2023-01-22T21:26:24.122Z,2.00
2023-01-22T21:28:54.723Z,1.40
2023-01-22T21:31:23.405Z,1.20
2023-01-22T21:33:52.584Z,1.10
2023-01-22T21:36:19.673Z,1.20
2023-01-22T21:38:47.739Z,1.70
2023-01-22T21:41:17.120Z,1.10
2023-01-22T21:44:04.663Z,1.20
2023-01-22T21:46:38.351Z,0.90
2023-01-22T21:49:27.235Z,0.80
2023-01-22T21:51:55.671Z,0.80
2023-01-22T21:54:33.097Z,0.90
2023-01-22T21:56:59.906Z,0.80
2023-01-22T21:59:26.870Z,0.80
2023-01-22T22:01:54.987Z,1.10
2023-01-22T22:04:27.392Z,0.80
2023-01-22T22:06:56.139Z,0.80
2023-01-22T22:09:29.213Z,0.90
2023-01-22T22:11:58.811Z,1.00
2023-01-22T22:14:26.253Z,1.20
2023-01-22T22:16:53.759Z,1.00
2023-01-22T22:19:23.544Z,0.80
2023-01-22T22:21:51.040Z,0.80
2023-01-22T22:24:19.271Z,0.70
2023-01-22T22:26:46.162Z,0.50
2023-01-22T22:29:12.947Z,0.40
2023-01-22T22:31:40.267Z,0.40
2023-01-22T22:34:07.171Z,0.90
2023-01-22T22:36:37.415Z,0.20
2023-01-22T22:39:06.511Z,0.30
2023-01-22T22:41:36.098Z,0.40
2023-01-22T22:44:03.260Z,0.30
2023-01-22T22:46:32.824Z,0.30
2023-01-22T22:49:01.143Z,0.20
2023-01-22T22:51:36.344Z,0.00
2023-01-22T22:54:11.729Z,-0.10
2023-01-22T22:56:38.736Z,-0.20
2023-01-22T22:59:05.539Z,-0.10
2023-01-22T23:01:33.255Z,-0.10
2023-01-22T23:04:00.617Z,-0.20
2023-01-22T23:06:30.351Z,-0.30
2023-01-22T23:08:58.203Z,0.20
2023-01-22T23:11:30.257Z,-0.20
2023-01-22T23:14:01.311Z,-0.20
2023-01-22T23:16:31.087Z,-0.10
2023-01-22T23:19:00.301Z,-0.20
2023-01-22T23:21:28.157Z,-0.20
2023-01-22T23:23:55.882Z,0.40
2023-01-22T23:26:29.927Z,-0.30
2023-01-22T23:29:04.058Z,-0.40
2023-01-22T23:31:32.971Z,-0.40
2023-01-22T23:34:01.287Z,-0.40
2023-01-22T23:36:28.169Z,-0.50
2023-01-22T23:38:55.153Z,-0.40
2023-01-22T23:41:23.383Z,-0.20
2023-01-22T23:43:50.788Z,-0.40
2023-01-22T23:46:21.593Z,-0.40
2023-01-22T23:48:48.773Z,0.40
2023-01-22T23:51:16.635Z,-0.50
2023-01-22T23:53:47.257Z,-0.50
2023-01-22T23:56:15.570Z,-0.50
2023-01-22T23:58:42.729Z,-0.50
